Home > Products > Valid Products > TAF

000
FTUS41 KBUF 190500
TAFROC
TAF
KROC 190540Z 1906/2006 06008KT P6SM SKC
     FM191200 09007KT P6SM SCT250
     FM191800 09012G18KT P6SM BKN250
     FM200200 13012G24KT P6SM BKN100=



000
FTUS41 KBUF 190500
TAFBUF
TAF
KBUF 190540Z 1906/2006 06008KT P6SM SCT250
     FM191500 10012KT P6SM SCT250
     FM191800 10012G20KT P6SM BKN250
     FM200000 11012G20KT P6SM OVC140
     FM200400 13015G25KT 6SM -RA OVC060=



000
FTUS41 KBUF 190500
TAFIAG
TAF
KIAG 190540Z 1906/2006 06008KT P6SM FEW250
     FM191500 10012KT P6SM SCT250
     FM191800 09014G22KT P6SM BKN250
     FM200100 10014G20KT P6SM BKN140
     FM200500 13015G25KT 6SM -RA OVC060=



000
FTUS41 KBUF 190500
TAFART
TAF
KART 190540Z 1906/2006 03010KT P6SM SKC
     FM191500 06008KT P6SM SCT250
     FM200200 11008KT P6SM SCT120 BKN200
     FM200500 13010G20KT P6SM BKN080=



000
FTUS41 KBUF 190500
TAFJHW
TAF
KJHW 190540Z 1906/2006 05006KT P6SM BKN250
     FM191200 11010KT P6SM BKN250
     FM191700 14012G20KT P6SM SCT120 OVC250
     FM192200 14015G25KT P6SM BKN120
     FM200200 14020G32KT 6SM -RA OVC050
     FM200500 15022G48KT 6SM -RA OVC035
      AMD LTD TO CLD VIS AND WIND=



000
FTUS41 KBUF 190500
TAFBUF
TAF
KBUF 190540Z 1906/2006 06008KT P6SM SCT250
     FM191500 10012KT P6SM SCT250
     FM191800 10012G20KT P6SM BKN250
     FM200000 11012G20KT P6SM OVC140
     FM200400 13015G25KT 6SM -RA OVC060=



000
FTUS41 KBUF 190500
TAFIAG
TAF
KIAG 190540Z 1906/2006 06008KT P6SM FEW250
     FM191500 10012KT P6SM SCT250
     FM191800 09014G22KT P6SM BKN250
     FM200100 10014G20KT P6SM BKN140
     FM200500 13015G25KT 6SM -RA OVC060=



000
FTUS41 KBUF 190500
TAFROC
TAF
KROC 190540Z 1906/2006 06008KT P6SM SKC
     FM191200 09007KT P6SM SCT250
     FM191800 09012G18KT P6SM BKN250
     FM200200 13012G24KT P6SM BKN100=



000
FTUS41 KBUF 190500
TAFJHW
TAF
KJHW 190540Z 1906/2006 05006KT P6SM BKN250
     FM191200 11010KT P6SM BKN250
     FM191700 14012G20KT P6SM SCT120 OVC250
     FM192200 14015G25KT P6SM BKN120
     FM200200 14020G32KT 6SM -RA OVC050
     FM200500 15022G48KT 6SM -RA OVC035
      AMD LTD TO CLD VIS AND WIND=



000
FTUS41 KBUF 190500
TAFART
TAF
KART 190540Z 1906/2006 03010KT P6SM SKC
     FM191500 06008KT P6SM SCT250
     FM200200 11008KT P6SM SCT120 BKN200
     FM200500 13010G20KT P6SM BKN080=



000
FTUS41 KBUF 190300 AAA
TAFIAG
TAF AMD
KIAG 190306Z 1903/1924 03007KT P6SM SCT250
     FM190700 08005KT P6SM SKC
     FM191400 09012KT P6SM SCT250
     FM192000 08014KT P6SM BKN200=



000
FTUS41 KBUF 190300 AAA
TAFBUF
TAF AMD
KBUF 190306Z 1903/1924 03007KT P6SM SCT250
     FM190600 07006KT P6SM SKC
     FM191400 09012KT P6SM SCT250
     FM192000 10013KT P6SM BKN200=



000
FTUS41 KBUF 190300 AAA
TAFART
TAF AMD
KART 190306Z 1903/1924 03005KT P6SM SKC
     FM191500 05008KT P6SM SCT250=



000
FTUS41 KBUF 190300 AAA
TAFROC
TAF AMD
KROC 190306Z 1903/1924 03006KT P6SM SKC
     FM190600 06005KT P6SM SKC
     FM191400 08010KT P6SM SCT250
     FM192100 08012KT P6SM BKN200=



000
FTUS41 KBUF 190300 AAA
TAFJHW
TAF AMD
KJHW 190306Z 1903/1924 03006KT P6SM BKN250
     FM190800 08005KT P6SM SCT250
     FM191400 13012KT P6SM SCT250
     FM191900 14013KT P6SM BKN200
      AMD LTD TO CLD VIS AND WIND=



000
FTUS41 KBUF 190300 AAA
TAFART
TAF AMD
KART 190306Z 1903/1924 03005KT P6SM SKC
     FM191500 05008KT P6SM SCT250=



000
FTUS41 KBUF 190300 AAA
TAFJHW
TAF AMD
KJHW 190306Z 1903/1924 03006KT P6SM BKN250
     FM190800 08005KT P6SM SCT250
     FM191400 13012KT P6SM SCT250
     FM191900 14013KT P6SM BKN200
      AMD LTD TO CLD VIS AND WIND=



000
FTUS41 KBUF 190300 AAA
TAFROC
TAF AMD
KROC 190306Z 1903/1924 03006KT P6SM SKC
     FM190600 06005KT P6SM SKC
     FM191400 08010KT P6SM SCT250
     FM192100 08012KT P6SM BKN200=



000
FTUS41 KBUF 190300 AAA
TAFBUF
TAF AMD
KBUF 190306Z 1903/1924 03007KT P6SM SCT250
     FM190600 07006KT P6SM SKC
     FM191400 09012KT P6SM SCT250
     FM192000 10013KT P6SM BKN200=



000
FTUS41 KBUF 190300 AAA
TAFIAG
TAF AMD
KIAG 190306Z 1903/1924 03007KT P6SM SCT250
     FM190700 08005KT P6SM SKC
     FM191400 09012KT P6SM SCT250
     FM192000 08014KT P6SM BKN200=



000
FTUS41 KBUF 182300
TAFBUF
TAF
KBUF 182326Z 1900/1924 35009KT P6SM SKC
     FM190200 03007KT P6SM SCT250
     FM190600 07006KT P6SM SKC
     FM191400 09012KT P6SM SCT250
     FM192000 10013KT P6SM BKN200=



000
FTUS41 KBUF 182300
TAFART
TAF
KART 182326Z 1900/1924 36010KT P6SM SKC
     FM190400 04004KT P6SM SKC
     FM191500 05008KT P6SM SCT250=



000
FTUS41 KBUF 182300
TAFJHW
TAF
KJHW 182326Z 1900/1924 02008KT P6SM SCT250
     FM190300 05006KT P6SM SCT250
     FM190800 08005KT P6SM SCT250
     FM191400 13012KT P6SM SCT250
     FM191900 14013KT P6SM BKN200
      AMD LTD TO CLD VIS AND WIND=



000
FTUS41 KBUF 182300
TAFIAG
TAF
KIAG 182326Z 1900/1924 36008KT P6SM SKC
     FM190300 04006KT P6SM SKC
     FM190700 08005KT P6SM SKC
     FM191400 09012KT P6SM SCT250
     FM192000 08014KT P6SM BKN200=



000
FTUS41 KBUF 182300
TAFROC
TAF
KROC 182326Z 1900/1924 33010KT P6SM SKC
     FM190300 03006KT P6SM SKC
     FM190600 06005KT P6SM SKC
     FM191400 08010KT P6SM SCT250
     FM192100 08012KT P6SM BKN200=



000
FTUS41 KBUF 182100 AAA
TAFIAG
TAF AMD
KIAG 182110Z 1821/1918 34012KT P6SM FEW250
     FM190200 03006KT P6SM SKC
     FM191500 09012G21KT P6SM SCT250=



000
FTUS41 KBUF 182100 AAB
TAFBUF
TAF AMD
KBUF 182110Z 1821/1918 34010KT P6SM FEW250
     FM190200 03006KT P6SM SKC
     FM191500 10012G21KT P6SM SCT250=



000
FTUS41 KBUF 182100 AAA
TAFJHW
TAF AMD
KJHW 182110Z 1821/1918 36013KT P6SM SCT250
     FM190200 03007KT P6SM SKC
     FM191100 11010G18KT P6SM FEW250
      AMD LTD TO CLD VIS AND WIND=



000
FTUS41 KBUF 182100 AAA
TAFART
TAF AMD
KART 182110Z 1821/1918 34014G22KT P6SM FEW250
     FM190100 35008KT P6SM FEW250
     FM190500 03006KT P6SM SKC=



000
FTUS41 KBUF 182100 AAA
TAFROC
TAF AMD
KROC 182110Z 1821/1918 35013KT P6SM FEW250
     FM190100 35007KT P6SM SKC
     FM190400 03006KT P6SM SKC
     FM191600 09010KT P6SM FEW250=



000
FTUS41 KBUF 181800 AAA
TAFBUF
TAF AMD
KBUF 181814Z 1818/1918 32015G22KT P6SM FEW050 FEW250
     FM182300 34009KT P6SM FEW250
     FM190200 03006KT P6SM SKC
     FM191500 10012G21KT P6SM SCT250=



000
FTUS41 KBUF 181800 AAA
TAFBUF
TAF AMD
KBUF 181814Z 1818/1918 32015G22KT P6SM FEW050 FEW250
     FM182300 34009KT P6SM FEW250
     FM190200 03006KT P6SM SKC
     FM191500 10012G21KT P6SM SCT250=



000
FTUS41 KBUF 181700
TAFIAG
TAF
KIAG 181722Z 1818/1918 33018KT P6SM FEW050 FEW250
     FM182300 35011KT P6SM FEW250
     FM190200 03006KT P6SM SKC
     FM191500 09012G21KT P6SM SCT250=



000
FTUS41 KBUF 181700
TAFJHW
TAF
KJHW 181722Z 1818/1918 32014KT P6SM FEW050 SCT250
     FM182300 35009KT P6SM SKC
     FM190200 03007KT P6SM SKC
     FM191100 11010G18KT P6SM FEW250
      AMD LTD TO CLD VIS AND WIND=



000
FTUS41 KBUF 181700
TAFROC
TAF
KROC 181722Z 1818/1918 33020G26KT P6SM FEW050 FEW250
     FM182300 34011G18KT P6SM FEW250
     FM190100 35007KT P6SM SKC
     FM190400 03006KT P6SM SKC
     FM191600 09010KT P6SM FEW250=



000
FTUS41 KBUF 181700
TAFBUF
TAF
KBUF 181722Z 1818/1918 29013G19KT P6SM FEW050 FEW250
     FM182300 34009KT P6SM FEW250
     FM190200 03006KT P6SM SKC
     FM191500 10012G21KT P6SM SCT250=



000
FTUS41 KBUF 181700
TAFART
TAF
KART 181722Z 1818/1918 26015G22KT P6SM FEW050 SCT250
     FM182100 31017KT P6SM FEW050 FEW250
     FM190100 35008KT P6SM FEW250
     FM190500 03006KT P6SM SKC=



000
FTUS41 KBUF 181700
TAFART
TAF
KART 181722Z 1818/1918 26015G22KT P6SM FEW050 SCT250
     FM182100 31017KT P6SM FEW050 FEW250
     FM190100 35008KT P6SM FEW250
     FM190500 03006KT P6SM SKC=



000
FTUS41 KBUF 181700
TAFBUF
TAF
KBUF 181722Z 1818/1918 29013G19KT P6SM FEW050 FEW250
     FM182300 34009KT P6SM FEW250
     FM190200 03006KT P6SM SKC
     FM191500 10012G21KT P6SM SCT250=



000
FTUS41 KBUF 181700
TAFROC
TAF
KROC 181722Z 1818/1918 33020G26KT P6SM FEW050 FEW250
     FM182300 34011G18KT P6SM FEW250
     FM190100 35007KT P6SM SKC
     FM190400 03006KT P6SM SKC
     FM191600 09010KT P6SM FEW250=



000
FTUS41 KBUF 181700
TAFIAG
TAF
KIAG 181722Z 1818/1918 33018KT P6SM FEW050 FEW250
     FM182300 35011KT P6SM FEW250
     FM190200 03006KT P6SM SKC
     FM191500 09012G21KT P6SM SCT250=



000
FTUS41 KBUF 181700
TAFJHW
TAF
KJHW 181722Z 1818/1918 32014KT P6SM FEW050 SCT250
     FM182300 35009KT P6SM SKC
     FM190200 03007KT P6SM SKC
     FM191100 11010G18KT P6SM FEW250
      AMD LTD TO CLD VIS AND WIND=



000
FTUS41 KBUF 181600 AAB
TAFJHW
TAF AMD
KJHW 181605Z 1816/1912 32014G20KT P6SM FEW050 SCT250
     FM182100 36012KT P6SM FEW050 FEW250
     FM190200 04008KT P6SM SKC
     FM190800 09008KT P6SM SKC
      AMD LTD TO CLD VIS AND WIND=



000
FTUS41 KBUF 181600 AAB
TAFROC
TAF AMD
KROC 181604Z 1816/1912 31017G27KT P6SM FEW050 FEW250
     FM182000 33017G25KT P6SM FEW050 FEW250
     FM182300 35010KT P6SM SKC
     FM190400 04005KT P6SM SKC
     FM191000 08005KT P6SM FEW250=



000
FTUS41 KBUF 181500 AAA
TAFBUF
TAF AMD
KBUF 181548Z 1816/1912 27014G22KT P6SM FEW050 FEW250
     FM181800 31015G25KT P6SM FEW050 FEW250
     FM182200 35010KT P6SM SKC
     FM190300 03006KT P6SM SKC
     FM190800 08008KT P6SM SKC=



000
FTUS41 KBUF 181500 AAA
TAFIAG
TAF AMD
KIAG 181548Z 1816/1912 30014G24KT P6SM FEW050 FEW250
     FM181800 33016G24KT P6SM FEW050 FEW250
     FM182200 35010KT P6SM SKC
     FM190400 03006KT P6SM SKC
     FM190800 08007KT P6SM SKC=



000
FTUS41 KBUF 181500 AAA
TAFJHW
TAF AMD
KJHW 181548Z 1816/1912 28012KT P6SM FEW050 FEW250
     FM181800 32014G20KT P6SM FEW050 SCT250
     FM182100 36012KT P6SM FEW050 FEW250
     FM190200 04008KT P6SM SKC
     FM190800 09008KT P6SM SKC
      AMD LTD TO CLD VIS AND WIND=



000
FTUS41 KBUF 181500 AAA
TAFART
TAF AMD
KART 181548Z 1816/1912 23010KT P6SM BKN090 BKN250
     FM181700 27015G25KT P6SM FEW050 SCT250
     FM182000 31018G28KT P6SM FEW050 SCT250
     FM182300 34012KT P6SM FEW250
     FM190600 03005KT P6SM SKC
     FM191100 06005KT P6SM SKC=



000
FTUS41 KBUF 181500 AAA
TAFROC
TAF AMD
KROC 181548Z 1816/1912 27012KT P6SM FEW100 SCT250
     FM181700 30017G27KT P6SM FEW050 FEW250
     FM182000 33017G25KT P6SM FEW050 FEW250
     FM182300 35010KT P6SM SKC
     FM190400 04005KT P6SM SKC
     FM191000 08005KT P6SM FEW250=



000
FTUS41 KBUF 181100
TAFIAG
TAF
KIAG 181139Z 1812/1912 22008KT P6SM SCT060 SCT250
     FM181400 27012KT P6SM FEW050 SCT200
     FM181600 30014G24KT P6SM FEW050 FEW250
     FM181800 33016G24KT P6SM FEW050 FEW250
     FM182200 35010KT P6SM SKC
     FM190400 03006KT P6SM SKC
     FM190800 08007KT P6SM SKC=



000
FTUS41 KBUF 181100
TAFBUF
TAF
KBUF 181139Z 1812/1912 21006KT P6SM FEW250
     FM181400 24012G18KT P6SM FEW070 SCT250
     FM181600 27014G22KT P6SM FEW050 FEW250
     FM181800 31015G25KT P6SM FEW050 FEW250
     FM182200 35010KT P6SM SKC
     FM190300 03006KT P6SM SKC
     FM190800 08008KT P6SM SKC=



000
FTUS41 KBUF 181100
TAFROC
TAF
KROC 181139Z 1812/1912 24008KT P6SM BKN100
     FM181400 27012KT P6SM FEW100 SCT250
     FM181700 30017G27KT P6SM FEW050 FEW250
     FM182000 33017G25KT P6SM FEW050 FEW250
     FM182300 35010KT P6SM SKC
     FM190400 04005KT P6SM SKC
     FM191000 08005KT P6SM FEW250=



000
FTUS41 KBUF 181100
TAFART
TAF
KART 181139Z 1812/1912 18006KT P6SM BKN100
     FM181400 23010KT P6SM BKN090 BKN250
     FM181700 27015G25KT P6SM FEW050 SCT250
     FM182000 31018G28KT P6SM FEW050 SCT250
     FM182300 34012KT P6SM FEW250
     FM190600 03005KT P6SM SKC
     FM191100 06005KT P6SM SKC=



000
FTUS41 KBUF 181100
TAFJHW
TAF
KJHW 181139Z 1812/1912 23008KT P6SM FEW250
     FM181500 28012KT P6SM FEW050 FEW250
     FM181800 32014G20KT P6SM FEW050 SCT250
     FM182100 36012KT P6SM FEW050 FEW250
     FM190200 04008KT P6SM SKC
     FM190800 09008KT P6SM SKC
      AMD LTD TO CLD VIS AND WIND=



000
FTUS41 KBUF 181100 AAA
TAFBUF
TAF AMD
KBUF 181132Z 1812/1906 21006KT P6SM SCT250
     FM181300 23010KT P6SM SCT250
     FM181500 26014G22KT P6SM FEW060 SCT250
     FM181800 30014G24KT P6SM FEW060 FEW250
     FM182200 34010KT P6SM SKC
     FM190300 03006KT P6SM SKC=



000
FTUS41 KBUF 181100 AAC
TAFIAG
TAF AMD
KIAG 181108Z 1811/1906 20004KT 5SM BR SCT250
     FM181300 23010KT P6SM SCT250
     FM181500 28014G20KT P6SM FEW060 SCT250
     FM181800 33014G24KT P6SM FEW060 FEW250
     FM182200 36010KT P6SM SKC
     FM190400 03006KT P6SM SKC=



000
FTUS41 KBUF 181100 AAC
TAFIAG
TAF AMD
KIAG 181108Z 1811/1906 20004KT 5SM BR SCT250
     FM181300 23010KT P6SM SCT250
     FM181500 28014G20KT P6SM FEW060 SCT250
     FM181800 33014G24KT P6SM FEW060 FEW250
     FM182200 36010KT P6SM SKC
     FM190400 03006KT P6SM SKC=



000
FTUS41 KBUF 181100 AAB
TAFROC
TAF AMD
KROC 181100Z 1811/1906 24006KT P6SM SKC
     FM181400 27012KT P6SM FEW060 SCT250
     FM181700 31017G27KT P6SM FEW060 FEW250
     FM182200 34010KT P6SM FEW250
     FM190400 04005KT P6SM SKC=



000
FTUS41 KBUF 181100 AAB
TAFART
TAF AMD
KART 181100Z 1811/1906 20004KT 4SM BR SKC
     FM181300 23008KT P6SM SCT250
     FM181500 24012G20KT P6SM BKN050
     FM181800 27017G25KT P6SM BKN050
     FM182100 32015G25KT P6SM FEW060 FEW250
     FM190000 34010KT P6SM FEW250
     FM190500 02006KT P6SM SKC=



000
FTUS41 KBUF 181100 AAB
TAFART
TAF AMD
KART 181100Z 1811/1906 20004KT 4SM BR SKC
     FM181300 23008KT P6SM SCT250
     FM181500 24012G20KT P6SM BKN050
     FM181800 27017G25KT P6SM BKN050
     FM182100 32015G25KT P6SM FEW060 FEW250
     FM190000 34010KT P6SM FEW250
     FM190500 02006KT P6SM SKC=



000
FTUS41 KBUF 181100 AAB
TAFROC
TAF AMD
KROC 181100Z 1811/1906 24006KT P6SM SKC
     FM181400 27012KT P6SM FEW060 SCT250
     FM181700 31017G27KT P6SM FEW060 FEW250
     FM182200 34010KT P6SM FEW250
     FM190400 04005KT P6SM SKC=



000
FTUS41 KBUF 181000 AAB
TAFBUF
TAF AMD
KBUF 181059Z 1811/1906 21006KT 5SM BR SCT250
     FM181200 23010KT P6SM SCT250
     FM181500 26014G22KT P6SM FEW060 SCT250
     FM181800 30014G24KT P6SM FEW060 FEW250
     FM182200 34010KT P6SM SKC
     FM190300 03006KT P6SM SKC=



000
FTUS41 KBUF 181000 AAB
TAFBUF
TAF AMD
KBUF 181059Z 1811/1906 21006KT 5SM BR SCT250
     FM181200 23010KT P6SM SCT250
     FM181500 26014G22KT P6SM FEW060 SCT250
     FM181800 30014G24KT P6SM FEW060 FEW250
     FM182200 34010KT P6SM SKC
     FM190300 03006KT P6SM SKC=



000
FTUS41 KBUF 180900 AAA
TAFART
TAF AMD
KART 180903Z 1809/1906 21004KT 3SM BR SKC
      TEMPO 1809/1812 2SM BR
     FM181300 23008KT P6SM SCT250
     FM181500 24012G20KT P6SM BKN050
     FM181800 27017G25KT P6SM BKN050
     FM182100 32015G25KT P6SM FEW060 FEW250
     FM190000 34010KT P6SM FEW250
     FM190500 02006KT P6SM SKC=



000
FTUS41 KBUF 180900 AAA
TAFART
TAF AMD
KART 180903Z 1809/1906 21004KT 3SM BR SKC
      TEMPO 1809/1812 2SM BR
     FM181300 23008KT P6SM SCT250
     FM181500 24012G20KT P6SM BKN050
     FM181800 27017G25KT P6SM BKN050
     FM182100 32015G25KT P6SM FEW060 FEW250
     FM190000 34010KT P6SM FEW250
     FM190500 02006KT P6SM SKC=



000
FTUS41 KBUF 180900 AAA
TAFBUF
TAF AMD
KBUF 180901Z 1809/1906 21008KT 4SM BR SCT250
      TEMPO 1809/1811 2SM BR
     FM181200 23010KT P6SM SCT250
     FM181500 26014G22KT P6SM FEW060 SCT250
     FM181800 30014G24KT P6SM FEW060 FEW250
     FM182200 34010KT P6SM SKC
     FM190300 03006KT P6SM SKC=



000
FTUS41 KBUF 180800 AAA
TAFROC
TAF AMD
KROC 180859Z 1809/1906 24004KT P6SM SKC
      TEMPO 1809/1812 4SM BR
     FM181400 27012KT P6SM FEW060 SCT250
     FM181700 31017G27KT P6SM FEW060 FEW250
     FM182200 34010KT P6SM FEW250
     FM190400 04005KT P6SM SKC=



000
FTUS41 KBUF 180800 AAA
TAFJHW
TAF AMD
KJHW 180858Z 1809/1906 19004KT P6SM SKC
     FM181400 25010KT P6SM FEW060 FEW250
     FM181700 31012G20KT P6SM FEW060 SCT250
     FM182100 35012KT P6SM FEW060 FEW250
     FM190100 02008KT P6SM SKC
     FM190500 06008KT P6SM SKC
      AMD LTD TO CLD VIS AND WIND=



000
FTUS41 KBUF 180800 AAB
TAFIAG
TAF AMD
KIAG 180857Z 1809/1906 19004KT 5SM BR SKC
      TEMPO 1810/1812 2SM BR
     FM181300 23010KT P6SM SCT250
     FM181500 28014G20KT P6SM FEW060 SCT250
     FM181800 33014G24KT P6SM FEW060 FEW250
     FM182200 36010KT P6SM SKC
     FM190400 03006KT P6SM SKC=



000
FTUS41 KBUF 180800 AAA
TAFIAG
TAF AMD
KIAG 180821Z 1808/1906 18004KT 5SM BR SKC
     FM180930 20006KT 2SM BR VCFG SCT007
     FM181130 22006KT 4SM BR SCT250
     FM181300 23010KT P6SM SCT250
     FM181500 28014G20KT P6SM FEW060 SCT250
     FM181800 33014G24KT P6SM FEW060 FEW250
     FM182200 36010KT P6SM SKC
     FM190400 03006KT P6SM SKC=



000
FTUS41 KBUF 180800 AAA
TAFIAG
TAF AMD
KIAG 180821Z 1808/1906 18004KT 5SM BR SKC
     FM180930 20006KT 2SM BR VCFG SCT007
     FM181130 22006KT 4SM BR SCT250
     FM181300 23010KT P6SM SCT250
     FM181500 28014G20KT P6SM FEW060 SCT250
     FM181800 33014G24KT P6SM FEW060 FEW250
     FM182200 36010KT P6SM SKC
     FM190400 03006KT P6SM SKC=



000
FTUS41 KBUF 180700 CCA
TAFBUF
TAF COR
KBUF 180700Z 1806/1906 22008KT 6SM BR SKC
      TEMPO 1807/1808 4SM BR
     FM180800 22008KT 4SM BR SCT250
     FM181200 23010KT P6SM SCT250
     FM181500 26012G20KT P6SM FEW060 SCT250
     FM181800 31014G24KT P6SM FEW060 FEW250
     FM182200 34010KT P6SM SKC
     FM190300 03006KT P6SM SKC=



000
FTUS41 KBUF 180500
TAFJHW
TAF
KJHW 180539Z 1806/1906 19004KT P6SM SKC
     FM181400 25010KT P6SM FEW060 FEW250
     FM181700 31012G20KT P6SM FEW060 SCT250
     FM182100 35012KT P6SM FEW060 FEW250
     FM190100 02008KT P6SM SKC
     FM190500 06008KT P6SM SKC
      AMD LTD TO CLD VIS AND WIND=



000
FTUS41 KBUF 180500
TAFART
TAF
KART 180539Z 1806/1906 21005KT 5SM BR SKC
     FM180930 22005KT 2SM BR SKC
     FM181100 22007KT 5SM BR SKC
     FM181300 23007KT P6SM SCT250
     FM181500 24012G18KT P6SM BKN050
     FM181800 28017G25KT P6SM BKN050
     FM182100 33015G25KT P6SM FEW060 FEW250
     FM190000 34010KT P6SM FEW250
     FM190500 02006KT P6SM SKC=



000
FTUS41 KBUF 180500
TAFBUF
TAF
KBUF 180539Z 1806/1906 21008KT 6SM BR SKC
      TEMPO 1806/1807 4SM BR
     FM180730 21008KT 2SM BR VCFG SCT007
     FM180900 22008KT 4SM BR SCT250
     FM181300 23010KT P6SM SCT250
     FM181500 26012G20KT P6SM FEW060 SCT250
     FM181800 31014G24KT P6SM FEW060 FEW250
     FM182200 34010KT P6SM SKC
     FM190300 03006KT P6SM SKC=



000
FTUS41 KBUF 180500
TAFROC
TAF
KROC 180539Z 1806/1906 24006KT P6SM SKC
      TEMPO 1808/1811 4SM BR
     FM181400 26012KT P6SM FEW060 SCT250
     FM181700 31017G27KT P6SM FEW060 FEW250
     FM182200 34010KT P6SM FEW250
     FM190400 04005KT P6SM SKC=



000
FTUS41 KBUF 180500
TAFIAG
TAF
KIAG 180539Z 1806/1906 18006KT 5SM BR SKC
     FM180800 20006KT 2SM BR VCFG SCT007
     FM181000 22006KT 4SM BR SCT250
     FM181300 23010KT P6SM SCT250
     FM181500 28014G20KT P6SM FEW060 SCT250
     FM181800 33014G24KT P6SM FEW060 FEW250
     FM182200 36010KT P6SM SKC
     FM190400 03006KT P6SM SKC=



000
FTUS41 KBUF 180500
TAFJHW
TAF
KJHW 180539Z 1806/1906 19004KT P6SM SKC
     FM181400 25010KT P6SM FEW060 FEW250
     FM181700 31012G20KT P6SM FEW060 SCT250
     FM182100 35012KT P6SM FEW060 FEW250
     FM190100 02008KT P6SM SKC
     FM190500 06008KT P6SM SKC
      AMD LTD TO CLD VIS AND WIND=



000
FTUS41 KBUF 180500
TAFART
TAF
KART 180539Z 1806/1906 21005KT 5SM BR SKC
     FM180930 22005KT 2SM BR SKC
     FM181100 22007KT 5SM BR SKC
     FM181300 23007KT P6SM SCT250
     FM181500 24012G18KT P6SM BKN050
     FM181800 28017G25KT P6SM BKN050
     FM182100 33015G25KT P6SM FEW060 FEW250
     FM190000 34010KT P6SM FEW250
     FM190500 02006KT P6SM SKC=



000
FTUS41 KBUF 180500
TAFROC
TAF
KROC 180539Z 1806/1906 24006KT P6SM SKC
      TEMPO 1808/1811 4SM BR
     FM181400 26012KT P6SM FEW060 SCT250
     FM181700 31017G27KT P6SM FEW060 FEW250
     FM182200 34010KT P6SM FEW250
     FM190400 04005KT P6SM SKC=



000
FTUS41 KBUF 180500
TAFBUF
TAF
KBUF 180539Z 1806/1906 21008KT 6SM BR SKC
      TEMPO 1806/1807 4SM BR
     FM180730 21008KT 2SM BR VCFG SCT007
     FM180900 22008KT 4SM BR SCT250
     FM181300 23010KT P6SM SCT250
     FM181500 26012G20KT P6SM FEW060 SCT250
     FM181800 31014G24KT P6SM FEW060 FEW250
     FM182200 34010KT P6SM SKC
     FM190300 03006KT P6SM SKC=



000
FTUS41 KBUF 180500
TAFIAG
TAF
KIAG 180539Z 1806/1906 18006KT 5SM BR SKC
     FM180800 20006KT 2SM BR VCFG SCT007
     FM181000 22006KT 4SM BR SCT250
     FM181300 23010KT P6SM SCT250
     FM181500 28014G20KT P6SM FEW060 SCT250
     FM181800 33014G24KT P6SM FEW060 FEW250
     FM182200 36010KT P6SM SKC
     FM190400 03006KT P6SM SKC=



000
FTUS41 KBUF 180500 AAA
TAFART
TAF AMD
KART 180520Z 1805/1824 VRB03KT 5SM BR SKC
     FM181200 21004KT P6SM SCT100
     FM181600 25013G20KT P6SM BKN070
     FM182000 30017G29KT P6SM SCT200=



000
FTUS41 KBUF 180500 AAA
TAFIAG
TAF AMD
KIAG 180520Z 1805/1824 18006KT 5SM BR SKC
     FM180900 22005KT 3SM BR VCFG FEW250
     FM181200 23008KT P6SM FEW250
     FM181700 31015G22KT P6SM FEW250=



000
FTUS41 KBUF 172300
TAFJHW
TAF
KJHW 172331Z 1800/1824 26006KT P6SM FEW250
     FM180800 VRB03KT P6SM FEW250
     FM181400 27008KT P6SM FEW250
     FM181700 31011G18KT P6SM FEW250
     FM182100 35012G19KT P6SM FEW250
      AMD LTD TO CLD VIS AND WIND=



000
FTUS41 KBUF 172300
TAFIAG
TAF
KIAG 172331Z 1800/1824 23011KT P6SM FEW250
     FM180900 22005KT 3SM BR VCFG FEW250
     FM181200 23008KT P6SM FEW250
     FM181700 31015G22KT P6SM FEW250=



000
FTUS41 KBUF 172300
TAFBUF
TAF
KBUF 172331Z 1800/1824 23010KT P6SM FEW250
     FM180800 20005KT 2SM BR VCFG FEW250
     FM181000 21006KT P6SM FEW250
     FM181600 26014G20KT P6SM SCT200
     FM181800 31014G24KT P6SM FEW250=



000
FTUS41 KBUF 172300
TAFROC
TAF
KROC 172331Z 1800/1824 25008KT P6SM FEW250
     FM181500 28013KT P6SM SCT140
     FM181700 30017G24KT P6SM FEW250=



000
FTUS41 KBUF 172300
TAFART
TAF
KART 172331Z 1800/1824 22008KT P6SM FEW070
     FM180600 VRB03KT P6SM FEW250
     FM181200 21004KT P6SM SCT100
     FM181600 25013G20KT P6SM BKN070
     FM182000 30017G29KT P6SM SCT200=



000
FTUS41 KBUF 172300
TAFJHW
TAF
KJHW 172331Z 1800/1824 26006KT P6SM FEW250
     FM180800 VRB03KT P6SM FEW250
     FM181400 27008KT P6SM FEW250
     FM181700 31011G18KT P6SM FEW250
     FM182100 35012G19KT P6SM FEW250
      AMD LTD TO CLD VIS AND WIND=



000
FTUS41 KBUF 172100 AAC
TAFBUF
TAF AMD
KBUF 172156Z 1722/1818 23011KT P6SM SCT040
     FM180200 22004KT P6SM SKC
     FM181400 23012KT P6SM SCT200
     FM181700 31016G22KT P6SM SCT200=



000
FTUS41 KBUF 172100 AAB
TAFIAG
TAF AMD
KIAG 172156Z 1722/1818 21011KT P6SM SCT040
     FM180200 20004KT P6SM SKC
     FM181400 23012KT P6SM SCT200
     FM181700 32016G22KT P6SM SCT200=



000
FTUS41 KBUF 172100 AAB
TAFIAG
TAF AMD
KIAG 172156Z 1722/1818 21011KT P6SM SCT040
     FM180200 20004KT P6SM SKC
     FM181400 23012KT P6SM SCT200
     FM181700 32016G22KT P6SM SCT200=



000
FTUS41 KBUF 172100 AAB
TAFART
TAF AMD
KART 172156Z 1722/1818 24012KT P6SM SCT040
     FM180200 VRB03KT P6SM SKC
     FM181300 24012KT P6SM BKN090
     FM181600 24014G20KT P6SM BKN060=



000
FTUS41 KBUF 172100 AAA
TAFROC
TAF AMD
KROC 172156Z 1722/1818 29009KT P6SM SCT040
     FM180200 VRB03KT P6SM SKC
     FM181400 27009KT P6SM SCT200
     FM181700 30016G22KT P6SM SCT200=



000
FTUS41 KBUF 172100 AAA
TAFJHW
TAF AMD
KJHW 172156Z 1722/1818 29010KT P6SM SCT040
     FM180200 VRB03KT P6SM SKC
     FM181300 24007KT P6SM SCT250
     FM181700 30012KT P6SM SCT250
      AMD LTD TO CLD VIS AND WIND=



000
FTUS41 KBUF 171900 AAB
TAFBUF
TAF AMD
KBUF 171919Z 1719/1818 22012KT 6SM BR SCT005
     FM172100 23010KT P6SM SCT040
     FM180200 22004KT P6SM SKC
     FM181400 23012KT P6SM SCT200
     FM181700 31016G22KT P6SM SCT200=



000
FTUS41 KBUF 171800 AAA
TAFART
TAF AMD
KART 171822Z 1718/1818 26012KT P6SM OVC015
     FM172000 24012KT P6SM SCT040
     FM180200 VRB03KT P6SM SKC
     FM181300 24012KT P6SM BKN090
     FM181600 24014G20KT P6SM BKN060=



000
FTUS41 KBUF 171800 AAA
TAFART
TAF AMD
KART 171822Z 1718/1818 26012KT P6SM OVC015
     FM172000 24012KT P6SM SCT040
     FM180200 VRB03KT P6SM SKC
     FM181300 24012KT P6SM BKN090
     FM181600 24014G20KT P6SM BKN060=



000
FTUS41 KBUF 171800 AAA
TAFIAG
TAF AMD
KIAG 171821Z 1718/1818 20008KT P6SM SCT035
     FM172100 25007KT P6SM SCT040
     FM180200 20004KT P6SM SKC
     FM181400 23012KT P6SM SCT200
     FM181700 32016G22KT P6SM SCT200=



000
FTUS41 KBUF 171800 AAA
TAFIAG
TAF AMD
KIAG 171821Z 1718/1818 20008KT P6SM SCT035
     FM172100 25007KT P6SM SCT040
     FM180200 20004KT P6SM SKC
     FM181400 23012KT P6SM SCT200
     FM181700 32016G22KT P6SM SCT200=



000
FTUS41 KBUF 171800 AAA
TAFBUF
TAF AMD
KBUF 171821Z 1718/1818 22012KT 3SM BR OVC005
     FM172100 23010KT P6SM SCT040
     FM180200 22004KT P6SM SKC
     FM181400 23012KT P6SM SCT200
     FM181700 31016G22KT P6SM SCT200=



000
FTUS41 KBUF 171800 AAA
TAFBUF
TAF AMD
KBUF 171821Z 1718/1818 22012KT 3SM BR OVC005
     FM172100 23010KT P6SM SCT040
     FM180200 22004KT P6SM SKC
     FM181400 23012KT P6SM SCT200
     FM181700 31016G22KT P6SM SCT200=



000
FTUS41 KBUF 171700
TAFIAG
TAF
KIAG 171724Z 1718/1818 26006KT 6SM BR BKN030
     FM172100 25007KT P6SM SCT040
     FM180200 20004KT P6SM SKC
     FM181400 23012KT P6SM SCT200
     FM181700 32016G22KT P6SM SCT200=



000
FTUS41 KBUF 171700
TAFART
TAF
KART 171724Z 1718/1818 26010KT P6SM OVC008
     FM172000 24012KT P6SM SCT040
     FM180200 VRB03KT P6SM SKC
     FM181300 24012KT P6SM BKN090
     FM181600 24014G20KT P6SM BKN060=



000
FTUS41 KBUF 171700
TAFJHW
TAF
KJHW 171724Z 1718/1818 30012KT P6SM BKN025
     FM172000 29010KT P6SM SCT040
     FM180200 VRB03KT P6SM SKC
     FM181300 24007KT P6SM SCT250
     FM181700 30012KT P6SM SCT250
      AMD LTD TO CLD VIS AND WIND=



000
FTUS41 KBUF 171700
TAFBUF
TAF
KBUF 171724Z 1718/1818 22012KT 6SM BR SCT015 SCT070
      TEMPO 1718/1721 BKN015
     FM172100 23010KT P6SM SCT040
     FM180200 22004KT P6SM SKC
     FM181400 23012KT P6SM SCT200
     FM181700 31016G22KT P6SM SCT200=



000
FTUS41 KBUF 171700
TAFROC
TAF
KROC 171724Z 1718/1818 30009KT P6SM BKN015
     FM172000 29009KT P6SM SCT040
     FM180200 VRB03KT P6SM SKC
     FM181400 27009KT P6SM SCT200
     FM181700 30016G22KT P6SM SCT200=



000
FTUS41 KBUF 171700
TAFBUF
TAF
KBUF 171724Z 1718/1818 22012KT 6SM BR SCT015 SCT070
      TEMPO 1718/1721 BKN015
     FM172100 23010KT P6SM SCT040
     FM180200 22004KT P6SM SKC
     FM181400 23012KT P6SM SCT200
     FM181700 31016G22KT P6SM SCT200=



000
FTUS41 KBUF 171700
TAFART
TAF
KART 171724Z 1718/1818 26010KT P6SM OVC008
     FM172000 24012KT P6SM SCT040
     FM180200 VRB03KT P6SM SKC
     FM181300 24012KT P6SM BKN090
     FM181600 24014G20KT P6SM BKN060=



000
FTUS41 KBUF 171700
TAFROC
TAF
KROC 171724Z 1718/1818 30009KT P6SM BKN015
     FM172000 29009KT P6SM SCT040
     FM180200 VRB03KT P6SM SKC
     FM181400 27009KT P6SM SCT200
     FM181700 30016G22KT P6SM SCT200=



000
FTUS41 KBUF 171700
TAFIAG
TAF
KIAG 171724Z 1718/1818 26006KT 6SM BR BKN030
     FM172100 25007KT P6SM SCT040
     FM180200 20004KT P6SM SKC
     FM181400 23012KT P6SM SCT200
     FM181700 32016G22KT P6SM SCT200=



000
FTUS41 KBUF 171700
TAFJHW
TAF
KJHW 171724Z 1718/1818 30012KT P6SM BKN025
     FM172000 29010KT P6SM SCT040
     FM180200 VRB03KT P6SM SKC
     FM181300 24007KT P6SM SCT250
     FM181700 30012KT P6SM SCT250
      AMD LTD TO CLD VIS AND WIND=



000
FTUS41 KBUF 171500 AAB
TAFJHW
TAF AMD
KJHW 171545Z 1716/1812 25006KT P6SM SCT012 OVC050
     FM171700 28008KT P6SM SCT007 BKN015
     FM171900 28008KT P6SM BKN035
     FM172100 29006KT P6SM SCT250
     FM180200 24004KT P6SM FEW250
      AMD LTD TO CLD VIS AND WIND=



000
FTUS41 KBUF 171500 AAC
TAFBUF
TAF AMD
KBUF 171545Z 1716/1812 23008KT P6SM SCT015 BKN035
     FM171800 24010KT P6SM SCT040 BKN070
     FM172000 24012KT P6SM FEW100 SCT250
     FM180000 22008KT P6SM FEW250=



000
FTUS41 KBUF 171500 AAA
TAFJHW
TAF AMD
KJHW 171505Z 1715/1812 24006KT 6SM BR OVC008
     FM171700 28008KT P6SM SCT007 BKN015
     FM171900 28008KT P6SM BKN035
     FM172100 29006KT P6SM SCT250
     FM180200 24004KT P6SM FEW250
      AMD LTD TO CLD VIS AND WIND=



000
FTUS41 KBUF 171500 AAB
TAFART
TAF AMD
KART 171505Z 1715/1812 24006KT P6SM OVC008
     FM171700 23010KT P6SM OVC015
     FM172000 23010G18KT P6SM FEW040 SCT070
     FM172300 22008KT P6SM FEW200
     FM180300 VRB03KT P6SM SKC=



000
FTUS41 KBUF 171500 AAA
TAFROC
TAF AMD
KROC 171505Z 1715/1812 32005KT P6SM OVC008
     FM171600 30007KT P6SM OVC015
     FM171800 28008KT P6SM BKN050
     FM172100 29010KT P6SM SCT040
     FM180200 25006KT P6SM FEW250
     FM180900 23006KT P6SM FEW250=



000
FTUS41 KBUF 171500 AAA
TAFIAG
TAF AMD
KIAG 171505Z 1715/1812 26006KT 4SM BR SCT005 OVC015
     FM171700 26007KT P6SM SCT040 BKN070
     FM171900 25008KT P6SM FEW100 SCT250
     FM180000 22006KT P6SM FEW250=



000
FTUS41 KBUF 171500 AAB
TAFBUF
TAF AMD
KBUF 171505Z 1715/1812 23007KT 1/2SM FG OVC002
     FM171600 25008KT P6SM SCT004 BKN015
     FM171800 24010KT P6SM SCT040 BKN070
     FM172000 24012KT P6SM FEW100 SCT250
     FM180000 22008KT P6SM FEW250=



000
FTUS41 KBUF 171300 AAA
TAFART
TAF AMD
KART 171311Z 1713/1812 24008KT 1/2SM FG OVC002
     FM171500 25008KT P6SM SCT007 BKN025
     FM171700 23010KT P6SM SCT040 BKN100
     FM172000 23010G18KT P6SM FEW040 SCT070
     FM172300 22008KT P6SM FEW200
     FM180300 VRB03KT P6SM SKC=



000
FTUS41 KBUF 171300 AAA
TAFBUF
TAF AMD
KBUF 171311Z 1713/1812 23010KT 1/2SM FG VCSH OVC002
     FM171600 25008KT P6SM SCT007 BKN025
     FM171730 24010KT P6SM SCT040 BKN070
     FM172000 24012KT P6SM FEW100 SCT250
     FM180000 22008KT P6SM FEW250=



000
FTUS41 KBUF 171300 AAA
TAFBUF
TAF AMD
KBUF 171311Z 1713/1812 23010KT 1/2SM FG VCSH OVC002
     FM171600 25008KT P6SM SCT007 BKN025
     FM171730 24010KT P6SM SCT040 BKN070
     FM172000 24012KT P6SM FEW100 SCT250
     FM180000 22008KT P6SM FEW250=



000
FTUS41 KBUF 171300 AAA
TAFART
TAF AMD
KART 171311Z 1713/1812 24008KT 1/2SM FG OVC002
     FM171500 25008KT P6SM SCT007 BKN025
     FM171700 23010KT P6SM SCT040 BKN100
     FM172000 23010G18KT P6SM FEW040 SCT070
     FM172300 22008KT P6SM FEW200
     FM180300 VRB03KT P6SM SKC=



000
FTUS41 KBUF 171100
TAFIAG
TAF
KIAG 171138Z 1712/1812 24006KT 4SM BR VCSH OVC004
     FM171500 26006KT P6SM SCT015 BKN025
     FM171700 26007KT P6SM SCT040 BKN070
     FM171900 25008KT P6SM FEW100 SCT250
     FM180000 22006KT P6SM FEW250=



000
FTUS41 KBUF 171100
TAFIAG
TAF
KIAG 171138Z 1712/1812 24006KT 4SM BR VCSH OVC004
     FM171500 26006KT P6SM SCT015 BKN025
     FM171700 26007KT P6SM SCT040 BKN070
     FM171900 25008KT P6SM FEW100 SCT250
     FM180000 22006KT P6SM FEW250=



000
FTUS41 KBUF 171100
TAFROC
TAF
KROC 171138Z 1712/1812 24006KT 3SM BR VCSH BKN007
      TEMPO 1712/1714 SCT007 BKN015
     FM171400 27008KT P6SM VCSH BKN015
     FM171700 29010KT P6SM BKN040
     FM172100 29010KT P6SM SCT040
     FM180200 25006KT P6SM FEW250
     FM180900 23006KT P6SM FEW250=



000
FTUS41 KBUF 171100
TAFBUF
TAF
KBUF 171138Z 1712/1812 24008KT 4SM BR VCSH OVC004
     FM171600 25008KT P6SM SCT007 BKN025
     FM171730 24010KT P6SM SCT040 BKN070
     FM172000 24012KT P6SM FEW100 SCT250
     FM180000 22008KT P6SM FEW250=



000
FTUS41 KBUF 171100
TAFART
TAF
KART 171138Z 1712/1812 24008KT 2SM BR VCSH OVC004
     FM171500 25008KT P6SM SCT007 BKN025
     FM171700 23010KT P6SM SCT040 BKN100
     FM172000 23010G18KT P6SM FEW040 SCT070
     FM172300 22008KT P6SM FEW200
     FM180300 VRB03KT P6SM SKC=



000
FTUS41 KBUF 171100
TAFROC
TAF
KROC 171138Z 1712/1812 24006KT 3SM BR VCSH BKN007
      TEMPO 1712/1714 SCT007 BKN015
     FM171400 27008KT P6SM VCSH BKN015
     FM171700 29010KT P6SM BKN040
     FM172100 29010KT P6SM SCT040
     FM180200 25006KT P6SM FEW250
     FM180900 23006KT P6SM FEW250=



000
FTUS41 KBUF 171100
TAFART
TAF
KART 171138Z 1712/1812 24008KT 2SM BR VCSH OVC004
     FM171500 25008KT P6SM SCT007 BKN025
     FM171700 23010KT P6SM SCT040 BKN100
     FM172000 23010G18KT P6SM FEW040 SCT070
     FM172300 22008KT P6SM FEW200
     FM180300 VRB03KT P6SM SKC=



000
FTUS41 KBUF 171100
TAFJHW
TAF
KJHW 171138Z 1712/1812 24006KT 1/4SM FG VCSH OVC002
     FM171330 24008KT 2SM BR OVC004
     FM171500 26006KT P6SM SCT003 BKN007
     FM171700 28008KT P6SM SCT007 BKN015
     FM171800 28008KT P6SM BKN035
     FM172100 29006KT P6SM SCT250
     FM180200 24004KT P6SM FEW250
      AMD LTD TO CLD VIS AND WIND=



000
FTUS41 KBUF 171100
TAFJHW
TAF
KJHW 171138Z 1712/1812 24006KT 1/4SM FG VCSH OVC002
     FM171330 24008KT 2SM BR OVC004
     FM171500 26006KT P6SM SCT003 BKN007
     FM171700 28008KT P6SM SCT007 BKN015
     FM171800 28008KT P6SM BKN035
     FM172100 29006KT P6SM SCT250
     FM180200 24004KT P6SM FEW250
      AMD LTD TO CLD VIS AND WIND=



000
FTUS41 KBUF 171100
TAFBUF
TAF
KBUF 171138Z 1712/1812 24008KT 4SM BR VCSH OVC004
     FM171600 25008KT P6SM SCT007 BKN025
     FM171730 24010KT P6SM SCT040 BKN070
     FM172000 24012KT P6SM FEW100 SCT250
     FM180000 22008KT P6SM FEW250=



000
FTUS41 KBUF 171000 AAD
TAFART
TAF AMD
KART 171059Z 1711/1806 23007KT 4SM BR VCSH BKN008
      TEMPO 1711/1714 SCT008 OVC015
     FM171400 25008KT P6SM SCT007 BKN025
     FM171600 25010KT P6SM SCT040 BKN100
     FM172100 23010KT P6SM SCT250
     FM180200 21004KT P6SM FEW250=



000
FTUS41 KBUF 171000 AAD
TAFART
TAF AMD
KART 171059Z 1711/1806 23007KT 4SM BR VCSH BKN008
      TEMPO 1711/1714 SCT008 OVC015
     FM171400 25008KT P6SM SCT007 BKN025
     FM171600 25010KT P6SM SCT040 BKN100
     FM172100 23010KT P6SM SCT250
     FM180200 21004KT P6SM FEW250=



000
FTUS41 KBUF 171000 AAB
TAFJHW
TAF AMD
KJHW 171058Z 1711/1806 23006KT 1SM BR VCSH OVC002
      TEMPO 1711/1713 1/2SM FG
     FM171400 24008KT 4SM BR SCT003 BKN007
     FM171600 27008KT P6SM SCT007 BKN015
     FM171800 28010KT P6SM FEW015 SCT035
     FM180300 25004KT P6SM FEW250
      AMD LTD TO CLD VIS AND WIND=



000
FTUS41 KBUF 171000 AAD
TAFROC
TAF AMD
KROC 171056Z 1711/1806 24004KT 4SM -SHRA BR BKN008
      TEMPO 1711/1713 2SM BR
     FM171400 26008KT P6SM SCT015 BKN025
     FM171600 28008KT P6SM SCT025 BKN035
     FM171800 30010G18KT P6SM SCT040 BKN100
     FM172200 29008KT P6SM SCT250
     FM180400 24006KT P6SM FEW250=



000
FTUS41 KBUF 171000 AAD
TAFROC
TAF AMD
KROC 171056Z 1711/1806 24004KT 4SM -SHRA BR BKN008
      TEMPO 1711/1713 2SM BR
     FM171400 26008KT P6SM SCT015 BKN025
     FM171600 28008KT P6SM SCT025 BKN035
     FM171800 30010G18KT P6SM SCT040 BKN100
     FM172200 29008KT P6SM SCT250
     FM180400 24006KT P6SM FEW250=



000
FTUS41 KBUF 171000 AAB
TAFIAG
TAF AMD
KIAG 171055Z 1711/1806 24008KT 3SM BR VCSH OVC004
     FM171400 25008KT P6SM SCT007 OVC025
     FM171600 26008KT P6SM SCT025 BKN035
     FM171800 26010KT P6SM FEW040 SCT080
     FM172300 22008KT P6SM FEW250
     FM180400 21004KT P6SM FEW250=



000
FTUS41 KBUF 171000 AAB
TAFIAG
TAF AMD
KIAG 171055Z 1711/1806 24008KT 3SM BR VCSH OVC004
     FM171400 25008KT P6SM SCT007 OVC025
     FM171600 26008KT P6SM SCT025 BKN035
     FM171800 26010KT P6SM FEW040 SCT080
     FM172300 22008KT P6SM FEW250
     FM180400 21004KT P6SM FEW250=



000
FTUS41 KBUF 171000 AAB
TAFBUF
TAF AMD
KBUF 171054Z 1711/1806 24008KT 3SM BR VCSH OVC002
      TEMPO 1711/1713 2SM BR
     FM171400 25008KT 6SM BR SCT008 OVC015
     FM171600 24010KT P6SM SCT025 BKN035
     FM171900 24012G18KT P6SM SCT130 BKN250
     FM180000 22008KT P6SM FEW250=



000
FTUS41 KBUF 171000 AAB
TAFBUF
TAF AMD
KBUF 171054Z 1711/1806 24008KT 3SM BR VCSH OVC002
      TEMPO 1711/1713 2SM BR
     FM171400 25008KT 6SM BR SCT008 OVC015
     FM171600 24010KT P6SM SCT025 BKN035
     FM171900 24012G18KT P6SM SCT130 BKN250
     FM180000 22008KT P6SM FEW250=



000
FTUS41 KBUF 170900 AAC
TAFROC
TAF AMD
KROC 170955Z 1710/1806 23006KT 4SM -SHRA BR BKN008
      TEMPO 1710/1712 2SM BR
     FM171300 24008KT P6SM SCT015 BKN025
     FM171600 28008KT P6SM SCT025 BKN035
     FM171800 30010G18KT P6SM SCT040 BKN100
     FM172200 29008KT P6SM SCT250
     FM180400 24006KT P6SM FEW250=



000
FTUS41 KBUF 170900 AAC
TAFART
TAF AMD
KART 170924Z 1709/1806 22007KT 4SM BR VCSH BKN008
     FM171400 24008KT P6SM SCT007 BKN025
     FM171600 24010KT P6SM SCT040 BKN100
     FM172100 23010KT P6SM SCT250
     FM180200 21004KT P6SM FEW250=



000
FTUS41 KBUF 170900 AAC
TAFART
TAF AMD
KART 170924Z 1709/1806 22007KT 4SM BR VCSH BKN008
     FM171400 24008KT P6SM SCT007 BKN025
     FM171600 24010KT P6SM SCT040 BKN100
     FM172100 23010KT P6SM SCT250
     FM180200 21004KT P6SM FEW250=



000
FTUS41 KBUF 170900 AAA
TAFJHW
TAF AMD
KJHW 170924Z 1709/1806 23006KT 6SM BR VCSH OVC004
     FM171400 25008KT P6SM SCT003 BKN007
     FM171600 28008KT P6SM SCT007 BKN015
     FM171800 28010KT P6SM FEW015 SCT035
     FM180300 24004KT P6SM FEW250
      AMD LTD TO CLD VIS AND WIND=



000
FTUS41 KBUF 170900 AAA
TAFJHW
TAF AMD
KJHW 170924Z 1709/1806 23006KT 6SM BR VCSH OVC004
     FM171400 25008KT P6SM SCT003 BKN007
     FM171600 28008KT P6SM SCT007 BKN015
     FM171800 28010KT P6SM FEW015 SCT035
     FM180300 24004KT P6SM FEW250
      AMD LTD TO CLD VIS AND WIND=



000
FTUS41 KBUF 170900 AAB
TAFROC
TAF AMD
KROC 170923Z 1709/1806 23006KT 6SM -SHRA OVC015
     FM171030 23006KT 4SM BR VCSH BKN008
     FM171300 24008KT P6SM SCT015 BKN025
     FM171600 28008KT P6SM SCT025 BKN035
     FM171800 30010G18KT P6SM SCT040 BKN100
     FM172200 29008KT P6SM SCT250
     FM180400 24006KT P6SM FEW250=



000
FTUS41 KBUF 170900 AAB
TAFROC
TAF AMD
KROC 170923Z 1709/1806 23006KT 6SM -SHRA OVC015
     FM171030 23006KT 4SM BR VCSH BKN008
     FM171300 24008KT P6SM SCT015 BKN025
     FM171600 28008KT P6SM SCT025 BKN035
     FM171800 30010G18KT P6SM SCT040 BKN100
     FM172200 29008KT P6SM SCT250
     FM180400 24006KT P6SM FEW250=



000
FTUS41 KBUF 170900 AAA
TAFIAG
TAF AMD
KIAG 170922Z 1709/1806 23008KT 3SM BR VCSH OVC004
     FM171300 24008KT P6SM SCT007 OVC025
     FM171600 26008KT P6SM SCT025 BKN035
     FM171800 26010KT P6SM FEW040 SCT080
     FM172300 22008KT P6SM FEW250
     FM180400 21004KT P6SM FEW250=



000
FTUS41 KBUF 170900 AAA
TAFBUF
TAF AMD
KBUF 170921Z 1709/1806 23008KT 3SM BR VCSH OVC002
      TEMPO 1709/1712 2SM BR
     FM171300 25008KT 6SM BR SCT008 OVC015
     FM171600 24010KT P6SM SCT025 BKN035
     FM171900 24012G18KT P6SM SCT130 BKN250
     FM180000 22008KT P6SM FEW250=



000
FTUS41 KBUF 170800 AAB
TAFART
TAF AMD
KART 170839Z 1709/1806 22007KT 4SM BR VCSH BKN008
     FM171400 24008KT P6SM SCT007 BKN025
     FM171600 24010KT P6SM SCT040 BKN100
     FM172100 23010KT P6SM SCT250
     FM180200 21004KT P6SM FEW250=



000
FTUS41 KBUF 170800 AAB
TAFART
TAF AMD
KART 170839Z 1709/1806 22007KT 4SM BR VCSH BKN008
     FM171400 24008KT P6SM SCT007 BKN025
     FM171600 24010KT P6SM SCT040 BKN100
     FM172100 23010KT P6SM SCT250
     FM180200 21004KT P6SM FEW250=



000
FTUS41 KBUF 170700 AAA
TAFART
TAF AMD
KART 170743Z 1708/1806 20007KT 5SM -SHRA BR SCT008 OVC015
     FM171000 22007KT P6SM VCSH BKN008
     FM171400 24008KT P6SM SCT007 BKN025
     FM171600 24010KT P6SM SCT040 BKN100
     FM172100 23010KT P6SM SCT250
     FM180200 21004KT P6SM FEW250=



000
FTUS41 KBUF 170700 AAA
TAFART
TAF AMD
KART 170743Z 1708/1806 20007KT 5SM -SHRA BR SCT008 OVC015
     FM171000 22007KT P6SM VCSH BKN008
     FM171400 24008KT P6SM SCT007 BKN025
     FM171600 24010KT P6SM SCT040 BKN100
     FM172100 23010KT P6SM SCT250
     FM180200 21004KT P6SM FEW250=



000
FTUS41 KBUF 170700 AAA
TAFROC
TAF AMD
KROC 170726Z 1707/1806 23006KT 4SM -SHRA OVC015
     FM170830 23006KT 4SM BR VCSH BKN008
     FM171300 24008KT P6SM SCT015 BKN025
     FM171600 28008KT P6SM SCT025 BKN035
     FM171800 30010G18KT P6SM SCT040 BKN100
     FM172200 29008KT P6SM SCT250
     FM180400 24006KT P6SM FEW250=



000
FTUS41 KBUF 170600 CCA
TAFIAG
TAF COR
KIAG 170631Z 1706/1806 23008KT 3SM BR VCSH OVC008
     FM171200 24008KT P6SM SCT007 OVC025
     FM171500 26008KT P6SM SCT025 BKN035
     FM171800 26010KT P6SM FEW040 SCT080
     FM172300 22008KT P6SM FEW250
     FM180400 21004KT P6SM FEW250=



000
FTUS41 KBUF 170600 CCA
TAFIAG
TAF COR
KIAG 170631Z 1706/1806 23008KT 3SM BR VCSH OVC008
     FM171200 24008KT P6SM SCT007 OVC025
     FM171500 26008KT P6SM SCT025 BKN035
     FM171800 26010KT P6SM FEW040 SCT080
     FM172300 22008KT P6SM FEW250
     FM180400 21004KT P6SM FEW250=



000
FTUS41 KBUF 170600 CCA
TAFBUF
TAF COR
KBUF 170630Z 1706/1806 24008KT 4SM BR VCSH OVC004
      TEMPO 1707/1711 2SM BR
     FM171300 25008KT 6SM BR SCT008 OVC015
     FM171600 24010KT P6SM SCT025 BKN035
     FM171900 24012G18KT P6SM SCT130 BKN250
     FM180000 22008KT P6SM FEW250=



000
FTUS41 KBUF 170600 CCA
TAFBUF
TAF COR
KBUF 170630Z 1706/1806 24008KT 4SM BR VCSH OVC004
      TEMPO 1707/1711 2SM BR
     FM171300 25008KT 6SM BR SCT008 OVC015
     FM171600 24010KT P6SM SCT025 BKN035
     FM171900 24012G18KT P6SM SCT130 BKN250
     FM180000 22008KT P6SM FEW250=



000
FTUS41 KBUF 170500
TAFBUF
TAF
KBUF 170539Z 1706/1806 23008KT 6SM -SHRA OVC015
     FM170730 24008KT 5SM BR VCSH BKN008
      TEMPO 1709/1712 2SM BR
     FM171300 25008KT 6SM BR SCT008 OVC015
     FM171600 24010KT P6SM SCT025 BKN035
     FM171900 24012G18KT P6SM SCT130 BKN250
     FM180000 22008KT P6SM FEW250=



000
FTUS41 KBUF 170500
TAFROC
TAF
KROC 170539Z 1706/1806 20006KT 6SM -SHRA OVC025
     FM170900 23006KT P6SM VCSH SCT008 BKN015
      TEMPO 1709/1713 4SM BR
     FM171300 24008KT P6SM SCT015 BKN025
     FM171600 28008KT P6SM SCT025 BKN035
     FM171800 30010G18KT P6SM SCT040 BKN100
     FM172200 29008KT P6SM SCT250
     FM180400 24006KT P6SM FEW250=



000
FTUS41 KBUF 170500
TAFIAG
TAF
KIAG 170539Z 1706/1806 21010KT P6SM VCSH OVC025
     FM170800 23010KT P6SM VCSH SCT007 OVC015
     FM171200 24008KT P6SM SCT007 OVC025
     FM171500 26008KT P6SM SCT025 BKN035
     FM171800 26010KT P6SM FEW040 SCT080
     FM172300 22008KT P6SM FEW250
     FM180400 21004KT P6SM FEW250=



000
FTUS41 KBUF 170500
TAFJHW
TAF
KJHW 170539Z 1706/1806 20006KT 5SM BR VCSH BKN008
     FM170830 21006KT 4SM BR VCSH OVC003
     FM171400 25008KT P6SM SCT003 BKN007
     FM171600 28008KT P6SM SCT007 BKN015
     FM171800 28010KT P6SM FEW015 SCT035
     FM180300 24004KT P6SM FEW250
      AMD LTD TO CLD VIS AND WIND=



000
FTUS41 KBUF 170500
TAFBUF
TAF
KBUF 170539Z 1706/1806 23008KT 6SM -SHRA OVC015
     FM170730 24008KT 5SM BR VCSH BKN008
      TEMPO 1709/1712 2SM BR
     FM171300 25008KT 6SM BR SCT008 OVC015
     FM171600 24010KT P6SM SCT025 BKN035
     FM171900 24012G18KT P6SM SCT130 BKN250
     FM180000 22008KT P6SM FEW250=



000
FTUS41 KBUF 170500
TAFROC
TAF
KROC 170539Z 1706/1806 20006KT 6SM -SHRA OVC025
     FM170900 23006KT P6SM VCSH SCT008 BKN015
      TEMPO 1709/1713 4SM BR
     FM171300 24008KT P6SM SCT015 BKN025
     FM171600 28008KT P6SM SCT025 BKN035
     FM171800 30010G18KT P6SM SCT040 BKN100
     FM172200 29008KT P6SM SCT250
     FM180400 24006KT P6SM FEW250=



000
FTUS41 KBUF 170500
TAFART
TAF
KART 170539Z 1706/1806 21007KT 6SM -SHRA SCT025 BKN050
     FM170800 21007KT 6SM -SHRA SCT015 OVC025
     FM171100 22007KT P6SM VCSH SCT007 OVC015
      TEMPO 1711/1713 BKN007
     FM171400 24008KT P6SM SCT007 BKN025
     FM171600 24010KT P6SM SCT040 BKN100
     FM172100 23010KT P6SM SCT250
     FM180200 21004KT P6SM FEW250=



000
FTUS41 KBUF 170500
TAFIAG
TAF
KIAG 170539Z 1706/1806 21010KT P6SM VCSH OVC025
     FM170800 23010KT P6SM VCSH SCT007 OVC015
     FM171200 24008KT P6SM SCT007 OVC025
     FM171500 26008KT P6SM SCT025 BKN035
     FM171800 26010KT P6SM FEW040 SCT080
     FM172300 22008KT P6SM FEW250
     FM180400 21004KT P6SM FEW250=



000
FTUS41 KBUF 170500
TAFART
TAF
KART 170539Z 1706/1806 21007KT 6SM -SHRA SCT025 BKN050
     FM170800 21007KT 6SM -SHRA SCT015 OVC025
     FM171100 22007KT P6SM VCSH SCT007 OVC015
      TEMPO 1711/1713 BKN007
     FM171400 24008KT P6SM SCT007 BKN025
     FM171600 24010KT P6SM SCT040 BKN100
     FM172100 23010KT P6SM SCT250
     FM180200 21004KT P6SM FEW250=



000
FTUS41 KBUF 170500
TAFJHW
TAF
KJHW 170539Z 1706/1806 20006KT 5SM BR VCSH BKN008
     FM170830 21006KT 4SM BR VCSH OVC003
     FM171400 25008KT P6SM SCT003 BKN007
     FM171600 28008KT P6SM SCT007 BKN015
     FM171800 28010KT P6SM FEW015 SCT035
     FM180300 24004KT P6SM FEW250
      AMD LTD TO CLD VIS AND WIND=



000
FTUS41 KBUF 170200 AAB
TAFJHW
TAF AMD
KJHW 170220Z 1702/1724 19012KT P6SM VCSH OVC015
     FM170500 21008KT 5SM -SHRA OVC008
     FM171000 23005KT P6SM OVC005
     FM171500 28008KT P6SM BKN015
     FM171800 29008KT P6SM SCT080
      AMD LTD TO CLD VIS AND WIND=



000
FTUS41 KBUF 170200 AAA
TAFIAG
TAF AMD
KIAG 170220Z 1702/1724 20006KT P6SM VCSH OVC030
     FM170400 22008KT 6SM -SHRA OVC025
     FM170700 24006KT 3SM BR VCSH OVC012
     FM171100 24008KT P6SM BKN015
     FM171400 25008KT P6SM BKN070
     FM172000 26008KT P6SM SCT070=



000
FTUS41 KBUF 170200 AAA
TAFROC
TAF AMD
KROC 170220Z 1702/1724 22005KT P6SM VCSH OVC050
     FM170500 23008KT 6SM -SHRA OVC035
     FM170800 25007KT P6SM OVC020
     FM171400 28010KT P6SM BKN070
     FM172000 28008KT P6SM SCT070=



000
FTUS41 KBUF 170200 AAA
TAFART
TAF AMD
KART 170220Z 1702/1724 21008KT 6SM -SHRA OVC060
     FM170500 22008KT 6SM -SHRA OVC025
     FM170900 23008KT 4SM -SHRA BR OVC012
     FM171400 24010KT P6SM BKN015
     FM171900 24010KT P6SM BKN080=



000
FTUS41 KBUF 170200 AAA
TAFBUF
TAF AMD
KBUF 170220Z 1702/1724 17006KT P6SM VCSH OVC030
     FM170400 22008KT 6SM -SHRA OVC025
     FM170800 24006KT 2SM BR VCSH OVC008
     FM171200 24008KT 3SM BR BKN012
     FM171500 25012KT P6SM BKN070
     FM172000 24010KT P6SM SCT070=



000
FTUS41 KBUF 170200 AAB
TAFJHW
TAF AMD
KJHW 170220Z 1702/1724 19012KT P6SM VCSH OVC015
     FM170500 21008KT 5SM -SHRA OVC008
     FM171000 23005KT P6SM OVC005
     FM171500 28008KT P6SM BKN015
     FM171800 29008KT P6SM SCT080
      AMD LTD TO CLD VIS AND WIND=



000
FTUS41 KBUF 170200 AAA
TAFROC
TAF AMD
KROC 170220Z 1702/1724 22005KT P6SM VCSH OVC050
     FM170500 23008KT 6SM -SHRA OVC035
     FM170800 25007KT P6SM OVC020
     FM171400 28010KT P6SM BKN070
     FM172000 28008KT P6SM SCT070=



000
FTUS41 KBUF 170200 AAA
TAFIAG
TAF AMD
KIAG 170220Z 1702/1724 20006KT P6SM VCSH OVC030
     FM170400 22008KT 6SM -SHRA OVC025
     FM170700 24006KT 3SM BR VCSH OVC012
     FM171100 24008KT P6SM BKN015
     FM171400 25008KT P6SM BKN070
     FM172000 26008KT P6SM SCT070=



000
FTUS41 KBUF 170200 AAA
TAFART
TAF AMD
KART 170220Z 1702/1724 21008KT 6SM -SHRA OVC060
     FM170500 22008KT 6SM -SHRA OVC025
     FM170900 23008KT 4SM -SHRA BR OVC012
     FM171400 24010KT P6SM BKN015
     FM171900 24010KT P6SM BKN080=



000
FTUS41 KBUF 170000 AAA
TAFJHW
TAF AMD
KJHW 170022Z 1700/1724 19012G20KT 6SM -SHRA OVC025
     FM170200 19012KT 6SM -SHRA OVC015
     FM170500 21008KT 5SM -SHRA OVC008
     FM171000 23005KT P6SM OVC008
     FM171500 28008KT P6SM BKN015
     FM171800 29008KT P6SM SCT080
      AMD LTD TO CLD VIS AND WIND=



000
FTUS41 KBUF 170000 AAA
TAFJHW
TAF AMD
KJHW 170022Z 1700/1724 19012G20KT 6SM -SHRA OVC025
     FM170200 19012KT 6SM -SHRA OVC015
     FM170500 21008KT 5SM -SHRA OVC008
     FM171000 23005KT P6SM OVC008
     FM171500 28008KT P6SM BKN015
     FM171800 29008KT P6SM SCT080
      AMD LTD TO CLD VIS AND WIND=



000
FTUS41 KBUF 162300
TAFBUF
TAF
KBUF 162339Z 1700/1724 VRB05KT P6SM -SHRA OVC060
     FM170100 20006KT P6SM VCSH OVC040
     FM170400 22008KT 6SM -SHRA OVC025
     FM170700 24006KT 2SM BR OVC008
     FM171200 24008KT 3SM BR BKN012
     FM171500 25012KT P6SM BKN070
     FM172000 24010KT P6SM SCT070=



000
FTUS41 KBUF 162300
TAFART
TAF
KART 162339Z 1700/1724 25008KT P6SM BKN200
     FM170300 21008KT 6SM -SHRA OVC070
     FM170500 22008KT 6SM -SHRA OVC025
     FM170900 23008KT 5SM -SHRA BR OVC012
     FM171400 24010KT P6SM BKN015
     FM171900 24010KT P6SM BKN080=



000
FTUS41 KBUF 162300
TAFROC
TAF
KROC 162339Z 1700/1724 21005KT P6SM VCSH OVC080
     FM170500 21008KT 6SM -SHRA OVC035
     FM170800 25007KT P6SM OVC015
     FM171400 28010KT P6SM BKN070
     FM172000 28008KT P6SM SCT070=



000
FTUS41 KBUF 162300
TAFIAG
TAF
KIAG 162339Z 1700/1724 VRB05KT P6SM -SHRA OVC060
     FM170100 21006KT P6SM VCSH OVC040
     FM170400 22008KT 6SM -SHRA OVC025
     FM170700 24006KT 2SM BR OVC008
     FM171100 24008KT 3SM BR BKN012
     FM171400 25008KT P6SM BKN070
     FM172000 26008KT P6SM SCT070=



000
FTUS41 KBUF 162300
TAFJHW
TAF
KJHW 162339Z 1700/1724 19012G20KT 6SM -SHRA OVC035
     FM170200 19012KT 6SM -SHRA OVC025
     FM170500 21008KT 5SM -SHRA OVC008
     FM171000 23005KT P6SM OVC008
     FM171500 28008KT P6SM BKN015
     FM171800 29008KT P6SM SCT080
      AMD LTD TO CLD VIS AND WIND=



000
FTUS41 KBUF 162100 AAA
TAFART
TAF AMD
KART 162101Z 1621/1718 25008KT P6SM SCT250
     FM170100 20011KT P6SM OVC070
     FM170500 20010KT P6SM OVC045
     FM170700 20009KT 6SM -SHRA OVC020
     FM171400 24008KT P6SM BKN040
     FM171600 24009KT P6SM BKN250=



000
FTUS41 KBUF 162100 AAA
TAFROC
TAF AMD
KROC 162101Z 1621/1718 03008KT P6SM OVC150
     FM162300 23006KT P6SM VCSH OVC080
     FM170600 21008KT 6SM -SHRA OVC020
     FM171200 25007KT 6SM BR VCSH OVC012
     FM171500 27009KT P6SM OVC050=



000
FTUS41 KBUF 162100 AAA
TAFIAG
TAF AMD
KIAG 162101Z 1621/1718 22015KT P6SM -SHRA OVC080
     FM162300 21010KT P6SM VCSH OVC040
     FM170200 20010KT 6SM -SHRA OVC025
     FM171100 24008KT P6SM OVC012
     FM171300 25007KT P6SM OVC035
     FM171500 27007KT P6SM BKN250=



000
FTUS41 KBUF 162100 AAA
TAFJHW
TAF AMD
KJHW 162101Z 1621/1718 20014G22KT P6SM VCSH BKN050
     FM162300 20012KT 6SM -SHRA OVC035
     FM170500 19013KT 6SM -SHRA OVC007
     FM171300 27006KT P6SM OVC015
     FM171600 28008KT P6SM OVC035
      AMD LTD TO CLD VIS AND WIND=



000
FTUS41 KBUF 162100 AAA
TAFBUF
TAF AMD
KBUF 162101Z 1621/1718 23015KT P6SM -SHRA OVC080
     FM162300 21010KT P6SM VCSH OVC045
     FM170300 20011KT 6SM -SHRA OVC025
     FM171100 24008KT P6SM VCSH OVC012
     FM171200 24008KT P6SM OVC015
     FM171600 25009KT P6SM BKN250=



000
FTUS41 KBUF 161700
TAFIAG
TAF
KIAG 161734Z 1618/1718 18008KT P6SM FEW200
     FM170000 20009KT P6SM VCSH OVC040
     FM170200 20010KT 6SM -SHRA OVC025
     FM171100 24008KT P6SM OVC012
     FM171300 25007KT P6SM OVC035
     FM171500 27007KT P6SM BKN250=



000
FTUS41 KBUF 161700
TAFROC
TAF
KROC 161734Z 1618/1718 18010KT P6SM FEW250
     FM170300 19009KT P6SM VCSH OVC045
     FM170600 21008KT 6SM -SHRA OVC020
     FM171200 25007KT 6SM BR VCSH OVC012
     FM171500 27009KT P6SM OVC050=



000
FTUS41 KBUF 161700
TAFBUF
TAF
KBUF 161734Z 1618/1718 18010KT P6SM FEW200
     FM170000 19010KT P6SM VCSH OVC045
     FM170300 20011KT 6SM -SHRA OVC025
     FM171100 24008KT P6SM VCSH OVC012
     FM171200 24008KT P6SM OVC015
     FM171600 25009KT P6SM BKN250=



000
FTUS41 KBUF 161700
TAFART
TAF
KART 161734Z 1618/1718 20008KT P6SM FEW250
     FM170400 20011KT P6SM OVC070
     FM170500 20010KT P6SM OVC045
     FM170700 20009KT 6SM -SHRA OVC020
     FM171400 24008KT P6SM BKN040
     FM171600 24009KT P6SM BKN250=



000
FTUS41 KBUF 161700
TAFJHW
TAF
KJHW 161734Z 1618/1718 17014G20KT P6SM BKN200
     FM161900 18014G22KT P6SM VCSH BKN050
     FM162300 18013KT 6SM -SHRA OVC025
     FM170500 19013KT 6SM -SHRA OVC007
     FM171300 27006KT P6SM OVC015
     FM171600 28008KT P6SM OVC035
      AMD LTD TO CLD VIS AND WIND=



000
FTUS41 KBUF 161700
TAFIAG
TAF
KIAG 161734Z 1618/1718 18008KT P6SM FEW200
     FM170000 20009KT P6SM VCSH OVC040
     FM170200 20010KT 6SM -SHRA OVC025
     FM171100 24008KT P6SM OVC012
     FM171300 25007KT P6SM OVC035
     FM171500 27007KT P6SM BKN250=



000
FTUS41 KBUF 161700
TAFJHW
TAF
KJHW 161734Z 1618/1718 17014G20KT P6SM BKN200
     FM161900 18014G22KT P6SM VCSH BKN050
     FM162300 18013KT 6SM -SHRA OVC025
     FM170500 19013KT 6SM -SHRA OVC007
     FM171300 27006KT P6SM OVC015
     FM171600 28008KT P6SM OVC035
      AMD LTD TO CLD VIS AND WIND=



000
FTUS41 KBUF 161700
TAFART
TAF
KART 161734Z 1618/1718 20008KT P6SM FEW250
     FM170400 20011KT P6SM OVC070
     FM170500 20010KT P6SM OVC045
     FM170700 20009KT 6SM -SHRA OVC020
     FM171400 24008KT P6SM BKN040
     FM171600 24009KT P6SM BKN250=



000
FTUS41 KBUF 161700
TAFROC
TAF
KROC 161734Z 1618/1718 18010KT P6SM FEW250
     FM170300 19009KT P6SM VCSH OVC045
     FM170600 21008KT 6SM -SHRA OVC020
     FM171200 25007KT 6SM BR VCSH OVC012
     FM171500 27009KT P6SM OVC050=



000
FTUS41 KBUF 161700
TAFBUF
TAF
KBUF 161734Z 1618/1718 18010KT P6SM FEW200
     FM170000 19010KT P6SM VCSH OVC045
     FM170300 20011KT 6SM -SHRA OVC025
     FM171100 24008KT P6SM VCSH OVC012
     FM171200 24008KT P6SM OVC015
     FM171600 25009KT P6SM BKN250=



000
FTUS41 KBUF 161500 AAA
TAFART
TAF AMD
KART 161517Z 1615/1712 18010KT P6SM SCT250
     FM162300 18008KT P6SM SCT100 BKN200
     FM170200 19008KT P6SM BKN100
     FM170500 20009KT P6SM VCSH SCT025 OVC040
     FM170800 20010KT 6SM -SHRA OVC025=



000
FTUS41 KBUF 161500 AAA
TAFJHW
TAF AMD
KJHW 161517Z 1615/1712 17012G20KT P6SM SCT130 BKN200
     FM161800 17014G21KT P6SM SCT060 BKN120
     FM162200 19014KT P6SM SCT040 OVC060
     FM162300 18012KT P6SM VCSH SCT025 OVC050
     FM170200 19012KT P6SM VCSH BKN025
     FM170400 19012KT 6SM -SHRA OVC015
     FM170700 22012KT 6SM -SHRA BKN007
      AMD LTD TO CLD VIS AND WIND=



000
FTUS41 KBUF 161500 AAA
TAFBUF
TAF AMD
KBUF 161517Z 1615/1712 14005KT P6SM BKN250
     FM161600 18010KT P6SM FEW120 BKN250
     FM162000 20010KT P6SM SCT060 BKN120
     FM170000 22008KT P6SM VCSH SCT025 OVC050
     FM170400 20008KT 6SM -SHRA BKN025
     FM170800 23010KT 6SM -SHRA OVC015=



000
FTUS41 KBUF 161500 AAA
TAFIAG
TAF AMD
KIAG 161517Z 1615/1712 19010KT P6SM FEW120 BKN250
     FM162000 20010KT P6SM SCT060 BKN120
     FM170100 20008KT P6SM VCSH OVC050
     FM170400 22008KT 6SM -SHRA BKN025
     FM170800 24010KT 6SM -SHRA OVC015=



000
FTUS41 KBUF 161500 AAA
TAFROC
TAF AMD
KROC 161517Z 1615/1712 21008KT P6SM SCT130 BKN250
     FM162100 19010KT P6SM BKN120
     FM170300 19008KT P6SM VCSH OVC050
     FM170600 22006KT 6SM -SHRA BKN025
     FM171000 24006KT 6SM -SHRA OVC015=



000
FTUS41 KBUF 161500 AAA
TAFART
TAF AMD
KART 161517Z 1615/1712 18010KT P6SM SCT250
     FM162300 18008KT P6SM SCT100 BKN200
     FM170200 19008KT P6SM BKN100
     FM170500 20009KT P6SM VCSH SCT025 OVC040
     FM170800 20010KT 6SM -SHRA OVC025=



000
FTUS41 KBUF 161500 AAA
TAFBUF
TAF AMD
KBUF 161517Z 1615/1712 14005KT P6SM BKN250
     FM161600 18010KT P6SM FEW120 BKN250
     FM162000 20010KT P6SM SCT060 BKN120
     FM170000 22008KT P6SM VCSH SCT025 OVC050
     FM170400 20008KT 6SM -SHRA BKN025
     FM170800 23010KT 6SM -SHRA OVC015=



000
FTUS41 KBUF 161500 AAA
TAFJHW
TAF AMD
KJHW 161517Z 1615/1712 17012G20KT P6SM SCT130 BKN200
     FM161800 17014G21KT P6SM SCT060 BKN120
     FM162200 19014KT P6SM SCT040 OVC060
     FM162300 18012KT P6SM VCSH SCT025 OVC050
     FM170200 19012KT P6SM VCSH BKN025
     FM170400 19012KT 6SM -SHRA OVC015
     FM170700 22012KT 6SM -SHRA BKN007
      AMD LTD TO CLD VIS AND WIND=



000
FTUS41 KBUF 161500 AAA
TAFIAG
TAF AMD
KIAG 161517Z 1615/1712 19010KT P6SM FEW120 BKN250
     FM162000 20010KT P6SM SCT060 BKN120
     FM170100 20008KT P6SM VCSH OVC050
     FM170400 22008KT 6SM -SHRA BKN025
     FM170800 24010KT 6SM -SHRA OVC015=



000
FTUS41 KBUF 161500 AAA
TAFROC
TAF AMD
KROC 161517Z 1615/1712 21008KT P6SM SCT130 BKN250
     FM162100 19010KT P6SM BKN120
     FM170300 19008KT P6SM VCSH OVC050
     FM170600 22006KT 6SM -SHRA BKN025
     FM171000 24006KT 6SM -SHRA OVC015=



000
FTUS41 KBUF 161100
TAFBUF
TAF
KBUF 161126Z 1612/1712 14006KT P6SM BKN250
     FM161600 18010KT P6SM FEW120 BKN250
     FM162000 20010KT P6SM SCT060 BKN120
     FM170000 22008KT P6SM VCSH SCT025 OVC050
     FM170400 20008KT 6SM -SHRA BKN025
     FM170800 23010KT 6SM -SHRA OVC015=



000
FTUS41 KBUF 161100
TAFIAG
TAF
KIAG 161126Z 1612/1712 13005KT P6SM BKN250
     FM161500 17010KT P6SM FEW120 BKN250
     FM162000 20010KT P6SM SCT060 BKN120
     FM170100 20008KT P6SM VCSH OVC050
     FM170400 22008KT 6SM -SHRA BKN025
     FM170800 24010KT 6SM -SHRA OVC015=



000
FTUS41 KBUF 161100
TAFJHW
TAF
KJHW 161126Z 1612/1712 16010KT P6SM SCT130 BKN200
     FM161800 17014G20KT P6SM SCT060 BKN120
     FM162200 19014KT P6SM SCT040 OVC060
     FM162300 18012KT P6SM VCSH SCT025 OVC050
     FM170200 19012KT P6SM VCSH BKN025
     FM170400 19012KT 6SM -SHRA OVC015
     FM170700 22012KT 6SM -SHRA BKN007
      AMD LTD TO CLD VIS AND WIND=



000
FTUS41 KBUF 161100
TAFROC
TAF
KROC 161126Z 1612/1712 15008KT P6SM BKN250
     FM161500 18010KT P6SM SCT130 BKN250
     FM162100 19010KT P6SM BKN120
     FM170300 19008KT P6SM VCSH OVC050
     FM170600 22006KT 6SM -SHRA BKN025
     FM171000 24006KT 6SM -SHRA OVC015=



000
FTUS41 KBUF 161100
TAFART
TAF
KART 161126Z 1612/1712 12006KT P6SM SCT250
     FM161500 18010KT P6SM SCT250
     FM162300 18008KT P6SM SCT100 BKN200
     FM170200 19008KT P6SM BKN100
     FM170500 20009KT P6SM VCSH SCT025 OVC040
     FM170800 20010KT 6SM -SHRA OVC025=



000
FTUS41 KBUF 161100
TAFJHW
TAF
KJHW 161126Z 1612/1712 16010KT P6SM SCT130 BKN200
     FM161800 17014G20KT P6SM SCT060 BKN120
     FM162200 19014KT P6SM SCT040 OVC060
     FM162300 18012KT P6SM VCSH SCT025 OVC050
     FM170200 19012KT P6SM VCSH BKN025
     FM170400 19012KT 6SM -SHRA OVC015
     FM170700 22012KT 6SM -SHRA BKN007
      AMD LTD TO CLD VIS AND WIND=



000
FTUS41 KBUF 161100
TAFROC
TAF
KROC 161126Z 1612/1712 15008KT P6SM BKN250
     FM161500 18010KT P6SM SCT130 BKN250
     FM162100 19010KT P6SM BKN120
     FM170300 19008KT P6SM VCSH OVC050
     FM170600 22006KT 6SM -SHRA BKN025
     FM171000 24006KT 6SM -SHRA OVC015=



000
FTUS41 KBUF 161100
TAFBUF
TAF
KBUF 161126Z 1612/1712 14006KT P6SM BKN250
     FM161600 18010KT P6SM FEW120 BKN250
     FM162000 20010KT P6SM SCT060 BKN120
     FM170000 22008KT P6SM VCSH SCT025 OVC050
     FM170400 20008KT 6SM -SHRA BKN025
     FM170800 23010KT 6SM -SHRA OVC015=



000
FTUS41 KBUF 161100
TAFART
TAF
KART 161126Z 1612/1712 12006KT P6SM SCT250
     FM161500 18010KT P6SM SCT250
     FM162300 18008KT P6SM SCT100 BKN200
     FM170200 19008KT P6SM BKN100
     FM170500 20009KT P6SM VCSH SCT025 OVC040
     FM170800 20010KT 6SM -SHRA OVC025=



000
FTUS41 KBUF 161100
TAFIAG
TAF
KIAG 161126Z 1612/1712 13005KT P6SM BKN250
     FM161500 17010KT P6SM FEW120 BKN250
     FM162000 20010KT P6SM SCT060 BKN120
     FM170100 20008KT P6SM VCSH OVC050
     FM170400 22008KT 6SM -SHRA BKN025
     FM170800 24010KT 6SM -SHRA OVC015=



000
FTUS41 KBUF 161000 AAB
TAFART
TAF AMD
KART 161026Z 1610/1706 09005KT P6SM SKC
     FM161300 15005KT P6SM SCT250
     FM161600 19008KT P6SM SCT250
     FM170000 18005KT P6SM SCT120 BKN200
     FM170400 19009KT P6SM BKN100
     FM170500 19010KT P6SM VCSH OVC060=



000
FTUS41 KBUF 161000 AAB
TAFIAG
TAF AMD
KIAG 161025Z 1610/1706 09004KT P6SM BKN250
     FM161230 13006KT P6SM BKN250
     FM161500 17010KT P6SM SCT140 BKN250
     FM162000 19010KT P6SM BKN120
     FM170100 20008KT P6SM VCSH OVC040
     FM170400 21009KT 6SM -SHRA BKN025=



000
FTUS41 KBUF 161000 AAB
TAFIAG
TAF AMD
KIAG 161025Z 1610/1706 09004KT P6SM BKN250
     FM161230 13006KT P6SM BKN250
     FM161500 17010KT P6SM SCT140 BKN250
     FM162000 19010KT P6SM BKN120
     FM170100 20008KT P6SM VCSH OVC040
     FM170400 21009KT 6SM -SHRA BKN025=



000
FTUS41 KBUF 161000 AAB
TAFBUF
TAF AMD
KBUF 161024Z 1610/1706 09005KT P6SM BKN250
     FM161230 13005KT P6SM BKN250
     FM161500 17010KT P6SM BKN250
     FM162000 20010KT P6SM BKN100
     FM170000 20008KT P6SM VCSH SCT025 OVC040
     FM170400 20010KT 6SM -SHRA BKN025=



000
FTUS41 KBUF 161000 AAB
TAFBUF
TAF AMD
KBUF 161024Z 1610/1706 09005KT P6SM BKN250
     FM161230 13005KT P6SM BKN250
     FM161500 17010KT P6SM BKN250
     FM162000 20010KT P6SM BKN100
     FM170000 20008KT P6SM VCSH SCT025 OVC040
     FM170400 20010KT 6SM -SHRA BKN025=



000
FTUS41 KBUF 160900 AAA
TAFIAG
TAF AMD
KIAG 160911Z 1609/1706 11004KT P6SM BKN250
     FM161200 14006KT P6SM BKN250
     FM161500 18010KT P6SM SCT140 BKN250
     FM162000 19010KT P6SM BKN120
     FM170100 20008KT P6SM VCSH OVC040
     FM170400 21009KT 6SM -SHRA BKN025=



000
FTUS41 KBUF 160900 AAA
TAFROC
TAF AMD
KROC 160911Z 1609/1706 00000KT P6SM BKN250
     FM161100 13005KT P6SM BKN250
     FM161400 17010KT P6SM BKN250
     FM162100 19010KT P6SM BKN120
     FM170300 21010KT P6SM VCSH BKN040=



000
FTUS41 KBUF 160900 AAA
TAFJHW
TAF AMD
KJHW 160911Z 1609/1706 15006KT P6SM SCT130 OVC250
     FM161500 16012KT P6SM SCT100 OVC250
     FM161800 17012G22KT P6SM BKN130
     FM162300 18012KT P6SM VCSH SCT025 BKN040
     FM170300 19014KT P6SM BKN025
     FM170500 20014KT 6SM -SHRA BKN007
      AMD LTD TO CLD VIS AND WIND=



000
FTUS41 KBUF 160900 AAA
TAFBUF
TAF AMD
KBUF 160911Z 1609/1706 12005KT P6SM BKN250
     FM161400 17010KT P6SM BKN250
     FM162000 20010KT P6SM BKN100
     FM170000 20008KT P6SM VCSH SCT025 OVC040
     FM170400 20010KT 6SM -SHRA BKN025=



000
FTUS41 KBUF 160900 AAA
TAFART
TAF AMD
KART 160911Z 1609/1706 09005KT P6SM SKC
     FM161200 15005KT P6SM SCT250
     FM161500 19008KT P6SM SCT250
     FM170000 18005KT P6SM SCT120 BKN200
     FM170400 19009KT P6SM BKN100
     FM170500 19010KT P6SM VCSH OVC060=



    US Dept of Commerce
    National Oceanic and Atmospheric Administration
    National Weather Service
    1325 East West Highway
    Silver Spring, MD 20910
    Page Author: NWS Internet Services Team
Disclaimer
Information Quality
Credits
Glossary
Privacy Policy
Freedom of Information Act (FOIA)
About Us
Career Opportunities